Tifton, Georgia
Current Conditions -  °F | °C
As of 2:30 PM on Tuesday 21 Oct 2014 (Local Time) from KTMA Reporting Station
Clear Clear  
Wind Chill: 25°   Ceiling: Unl
Heat Index: 26°   Visibility: 10mi
Dew Point:   Wind: 6mph
Humidity: 34%   Direction: 330°NNW
Pressure: 29.95"   Gusts: NA
Location:  31.45°N, 83.51°W
Report Text: KTMA 211830Z AUTO 33005KT 10SM CLR 25/08 A2995 RMK AO2 T02500081
Loading
Personal Weather Stations






























Interactive Weather Map
Tropical Storm Tracking
New forecast layout! Learn more

10-Day Weather Forecast

Advertisements
Track Severe Weather on mobile